Terminal Aerodrome Forecast
Issued by NWS

Current Version | Previous Version | Text Only | Print | Product List | Glossary On
Versions: 1 2 3 4 5 6 7 8 9 10 11 12 13 14 15 16 17 18 19
000
FTUS44 KLUB 010016 AAA
TAFCDS
TAF AMD
KCDS 010016Z 0100/0124 09015G22KT 5SM -TSRA SCT025CB BKN040 OVC150
     FM010800 03010KT P6SM -SHRA OVC025
     FM011600 07010KT P6SM OVC025=

USA.gov is the U.S. government's official web portal to all federal, state and local government web resources and services.